メインページ
METAR-TAF:

METAR-TAF

空港 :

プリンスルパート, ブリティッシュコロンビア州, カナダ

緯度: 54-18N, 経度: 130-26W, 海抜: 34m

現時点の気象観測

当レポートは57分前の17:21(UTC)に作成
西の風 18kt、最大23ktの突風を伴う
気温 10°C
湿度 87%
気圧 1004 hPa
視程: 14.5km
高度1400ftの雲は散在している
高度4500ftの曇り

METAR: CYPR 171721Z AUTO 26018G23KT 9SM SCT014 OVC045 10/08 A2964 RMK PRESRR SLP041

時間: 10:18 (18:18 UTC)

予報

当レポートは2時間15分前の16:03(UTC)に作成
予報は17日の 16時(UTC)から 18日の 01時(UTC)まで有効
南西の風 12kt、最大22ktの突風を伴う
視程: 10km
高度1200ftの雲は散在している
高度3000ftの曇り
小雨
17日の 16時(UTC)から 17日の 18時(UTC)まで一時的に
高度800ftの千切れ雲あり
高度2000ftの曇り
弱いにわか雨, 靄
17日の 1800時(UTC)から
南/南西の風 10kt、最大20ktの突風を伴う
視程: 10km
高度1500ftの雲は散在している
高度3000ftの千切れ雲あり
高度5000ftの曇り
17日の 18時(UTC)から 18日の 01時(UTC)まで一時的に
視程: 6.4km
高度1500ftの千切れ雲あり
高度3000ftの曇り
弱いにわか雨, 靄

TAF: CYPR 171603Z 1716/1801 23012G22KT P6SM -RA SCT012 OVC030 TEMPO 1716/1718 11/2SM -SHRA BR BKN008 OVC020 FM171800 21010G20KT P6SM SCT015 BKN030 OVC050 TEMPO 1718/1801 4SM -SHRA BR BKN015 OVC030 RMK FCST BASED ON AUTO OBS. NXT FCST BY 171900Z

4,000以上の空港の気象観測と天気予報(METAR報とTAF報)

利用可能な観測所は地図上に黄色い丸と赤い丸で示す。

丸の上にカーソルを重ねると観測所名を参照できる。

次にクリックすると気象観測と天気予報を参照できる。

マップの切り替え:黒色「×」印の緑ボタンをクリックして拡大、「-」印の緑ボタンをクリックして縮小、緑色の三角印をクリックして隣りの地図に切り替え


METAR-TAF: